sensor_id;sensor_type;location;lat;lon;timestamp;temperature;humidity
10662;DHT22;5379;51.034;7.006;2023-04-21T04:32:42;12.60;99.90
10662;DHT22;5379;51.034;7.006;2023-04-21T04:35:09;12.70;99.90
10662;DHT22;5379;51.034;7.006;2023-04-21T04:37:37;12.60;99.90
10662;DHT22;5379;51.034;7.006;2023-04-21T04:40:07;12.70;99.90
10662;DHT22;5379;51.034;7.006;2023-04-21T04:42:36;12.60;99.90
10662;DHT22;5379;51.034;7.006;2023-04-21T04:45:05;12.50;99.90
10662;DHT22;5379;51.034;7.006;2023-04-21T04:47:32;12.40;99.90
10662;DHT22;5379;51.034;7.006;2023-04-21T04:50:01;12.50;99.90
10662;DHT22;5379;51.034;7.006;2023-04-21T04:52:28;12.40;99.90
10662;DHT22;5379;51.034;7.006;2023-04-21T04:54:55;12.40;99.90
10662;DHT22;5379;51.034;7.006;2023-04-21T04:57:22;12.50;99.90
10662;DHT22;5379;51.034;7.006;2023-04-21T04:59:53;12.50;99.90
10662;DHT22;5379;51.034;7.006;2023-04-21T05:02:20;12.50;99.90
10662;DHT22;5379;51.034;7.006;2023-04-21T05:04:48;12.50;99.90
10662;DHT22;5379;51.034;7.006;2023-04-21T05:07:16;12.50;99.90
10662;DHT22;5379;51.034;7.006;2023-04-21T05:09:44;12.50;99.90
10662;DHT22;5379;51.034;7.006;2023-04-21T05:12:11;12.50;99.90
10662;DHT22;5379;51.034;7.006;2023-04-21T05:14:37;12.50;99.90
10662;DHT22;5379;51.034;7.006;2023-04-21T05:17:04;12.50;99.90
10662;DHT22;5379;51.034;7.006;2023-04-21T05:19:34;12.50;99.90
10662;DHT22;5379;51.034;7.006;2023-04-21T05:22:01;12.60;99.90
10662;DHT22;5379;51.034;7.006;2023-04-21T05:24:32;12.60;99.90
10662;DHT22;5379;51.034;7.006;2023-04-21T05:26:59;12.70;99.90
10662;DHT22;5379;51.034;7.006;2023-04-21T05:29:27;12.90;99.90
10662;DHT22;5379;51.034;7.006;2023-04-21T05:31:54;13.00;99.90
10662;DHT22;5379;51.034;7.006;2023-04-21T05:34:21;13.10;99.90
10662;DHT22;5379;51.034;7.006;2023-04-21T05:36:48;12.90;99.90
10662;DHT22;5379;51.034;7.006;2023-04-21T05:39:15;12.80;99.90
10662;DHT22;5379;51.034;7.006;2023-04-21T05:41:43;12.80;99.90
10662;DHT22;5379;51.034;7.006;2023-04-21T05:44:10;12.70;99.90
10662;DHT22;5379;51.034;7.006;2023-04-21T05:46:37;12.70;99.90
10662;DHT22;5379;51.034;7.006;2023-04-21T05:49:04;12.60;99.90
10662;DHT22;5379;51.034;7.006;2023-04-21T05:51:31;12.70;99.90
10662;DHT22;5379;51.034;7.006;2023-04-21T05:53:58;12.70;99.90
10662;DHT22;5379;51.034;7.006;2023-04-21T05:56:25;12.70;99.90
10662;DHT22;5379;51.034;7.006;2023-04-21T05:58:53;12.80;99.90
10662;DHT22;5379;51.034;7.006;2023-04-21T06:01:20;12.90;99.90
10662;DHT22;5379;51.034;7.006;2023-04-21T06:03:47;12.90;99.90
10662;DHT22;5379;51.034;7.006;2023-04-21T06:06:14;12.90;99.90
10662;DHT22;5379;51.034;7.006;2023-04-21T06:08:41;12.90;99.90
10662;DHT22;5379;51.034;7.006;2023-04-21T06:11:08;13.00;99.90
10662;DHT22;5379;51.034;7.006;2023-04-21T06:13:35;13.20;99.90
10662;DHT22;5379;51.034;7.006;2023-04-21T06:16:04;13.30;99.90
10662;DHT22;5379;51.034;7.006;2023-04-21T06:18:31;13.30;99.90
10662;DHT22;5379;51.034;7.006;2023-04-21T06:20:58;13.20;99.90
10662;DHT22;5379;51.034;7.006;2023-04-21T06:23:25;13.10;99.90
10662;DHT22;5379;51.034;7.006;2023-04-21T06:26:01;13.10;99.90
10662;DHT22;5379;51.034;7.006;2023-04-21T06:28:30;13.00;99.90
10662;DHT22;5379;51.034;7.006;2023-04-21T06:30:57;13.10;99.90
10662;DHT22;5379;51.034;7.006;2023-04-21T06:33:27;13.20;99.90
10662;DHT22;5379;51.034;7.006;2023-04-21T06:35:54;13.30;99.90
10662;DHT22;5379;51.034;7.006;2023-04-21T06:38:21;13.30;99.90
10662;DHT22;5379;51.034;7.006;2023-04-21T06:40:48;13.50;99.90
10662;DHT22;5379;51.034;7.006;2023-04-21T06:43:16;13.50;99.90
10662;DHT22;5379;51.034;7.006;2023-04-21T06:45:43;13.60;99.90
10662;DHT22;5379;51.034;7.006;2023-04-21T06:48:09;13.70;99.90
10662;DHT22;5379;51.034;7.006;2023-04-21T06:50:38;13.80;99.90
10662;DHT22;5379;51.034;7.006;2023-04-21T06:53:05;13.80;99.90
10662;DHT22;5379;51.034;7.006;2023-04-21T06:55:32;13.90;99.90
10662;DHT22;5379;51.034;7.006;2023-04-21T06:57:59;14.10;99.90
10662;DHT22;5379;51.034;7.006;2023-04-21T07:00:26;14.10;99.90
10662;DHT22;5379;51.034;7.006;2023-04-21T07:02:53;14.20;99.90
10662;DHT22;5379;51.034;7.006;2023-04-21T07:05:20;14.10;99.90
10662;DHT22;5379;51.034;7.006;2023-04-21T07:07:48;14.20;99.90
10662;DHT22;5379;51.034;7.006;2023-04-21T07:10:15;14.40;99.90
10662;DHT22;5379;51.034;7.006;2023-04-21T07:12:44;14.60;99.90
10662;DHT22;5379;51.034;7.006;2023-04-21T07:15:11;14.50;99.90
10662;DHT22;5379;51.034;7.006;2023-04-21T07:17:38;14.30;99.90
10662;DHT22;5379;51.034;7.006;2023-04-21T07:20:06;14.40;99.90
10662;DHT22;5379;51.034;7.006;2023-04-21T07:22:34;14.50;99.90
10662;DHT22;5379;51.034;7.006;2023-04-21T07:25:03;14.70;99.90
10662;DHT22;5379;51.034;7.006;2023-04-21T07:27:31;15.10;99.90
10662;DHT22;5379;51.034;7.006;2023-04-21T07:29:58;14.90;99.90
10662;DHT22;5379;51.034;7.006;2023-04-21T07:32:25;14.60;99.90
10662;DHT22;5379;51.034;7.006;2023-04-21T07:34:52;14.60;99.90
10662;DHT22;5379;51.034;7.006;2023-04-21T07:37:19;14.80;99.90
10662;DHT22;5379;51.034;7.006;2023-04-21T07:39:46;14.90;99.90
10662;DHT22;5379;51.034;7.006;2023-04-21T07:42:14;15.00;99.90
10662;DHT22;5379;51.034;7.006;2023-04-21T07:44:41;14.90;99.90
10662;DHT22;5379;51.034;7.006;2023-04-21T07:47:08;15.40;99.90
10662;DHT22;5379;51.034;7.006;2023-04-21T07:49:35;15.60;99.90
10662;DHT22;5379;51.034;7.006;2023-04-21T07:52:02;15.90;99.90
10662;DHT22;5379;51.034;7.006;2023-04-21T07:54:29;15.90;99.90
10662;DHT22;5379;51.034;7.006;2023-04-21T07:56:56;15.50;99.90
10662;DHT22;5379;51.034;7.006;2023-04-21T07:59:24;15.20;99.90
10662;DHT22;5379;51.034;7.006;2023-04-21T08:01:51;15.40;99.90
10662;DHT22;5379;51.034;7.006;2023-04-21T08:04:18;15.50;99.90
10662;DHT22;5379;51.034;7.006;2023-04-21T08:06:45;15.60;99.90
10662;DHT22;5379;51.034;7.006;2023-04-21T08:09:12;15.50;99.90
10662;DHT22;5379;51.034;7.006;2023-04-21T08:11:39;15.70;99.90
10662;DHT22;5379;51.034;7.006;2023-04-21T08:14:06;15.70;99.90
10662;DHT22;5379;51.034;7.006;2023-04-21T08:16:36;15.50;99.90
10662;DHT22;5379;51.034;7.006;2023-04-21T08:19:03;15.70;99.90
10662;DHT22;5379;51.034;7.006;2023-04-21T08:21:31;15.90;99.90
10662;DHT22;5379;51.034;7.006;2023-04-21T08:23:58;16.60;99.90
10662;DHT22;5379;51.034;7.006;2023-04-21T08:26:25;17.20;99.90
10662;DHT22;5379;51.034;7.006;2023-04-21T08:28:54;17.10;99.90
10662;DHT22;5379;51.034;7.006;2023-04-21T08:31:21;17.50;99.90
10662;DHT22;5379;51.034;7.006;2023-04-21T08:33:50;17.40;99.90
10662;DHT22;5379;51.034;7.006;2023-04-21T08:36:17;16.60;99.90
10662;DHT22;5379;51.034;7.006;2023-04-21T08:38:44;16.10;99.90
10662;DHT22;5379;51.034;7.006;2023-04-21T08:41:12;15.90;99.90
10662;DHT22;5379;51.034;7.006;2023-04-21T08:43:39;15.80;99.90
10662;DHT22;5379;51.034;7.006;2023-04-21T08:46:07;15.80;99.90
10662;DHT22;5379;51.034;7.006;2023-04-21T08:48:35;15.70;99.90
10662;DHT22;5379;51.034;7.006;2023-04-21T08:51:05;15.60;99.90
10662;DHT22;5379;51.034;7.006;2023-04-21T08:53:34;15.80;99.90
10662;DHT22;5379;51.034;7.006;2023-04-21T08:56:01;15.90;99.90
10662;DHT22;5379;51.034;7.006;2023-04-21T08:58:29;16.30;99.90
10662;DHT22;5379;51.034;7.006;2023-04-21T09:00:56;16.70;99.90
10662;DHT22;5379;51.034;7.006;2023-04-21T09:03:25;17.60;99.90
10662;DHT22;5379;51.034;7.006;2023-04-21T09:05:57;18.40;99.90
10662;DHT22;5379;51.034;7.006;2023-04-21T09:08:26;18.90;99.90
10662;DHT22;5379;51.034;7.006;2023-04-21T09:10:55;19.00;99.90
10662;DHT22;5379;51.034;7.006;2023-04-21T09:13:29;19.20;99.80
10662;DHT22;5379;51.034;7.006;2023-04-21T09:15:56;18.70;99.90
10662;DHT22;5379;51.034;7.006;2023-04-21T09:18:28;18.20;99.90
10662;DHT22;5379;51.034;7.006;2023-04-21T09:21:07;17.80;99.90
10662;DHT22;5379;51.034;7.006;2023-04-21T09:23:46;17.70;99.90
10662;DHT22;5379;51.034;7.006;2023-04-21T09:26:13;17.70;99.90
10662;DHT22;5379;51.034;7.006;2023-04-21T09:28:41;17.50;99.90
10662;DHT22;5379;51.034;7.006;2023-04-21T09:31:15;17.50;99.90
10662;DHT22;5379;51.034;7.006;2023-04-21T09:33:45;17.40;99.90
10662;DHT22;5379;51.034;7.006;2023-04-21T09:36:17;18.00;99.90
10662;DHT22;5379;51.034;7.006;2023-04-21T09:38:49;18.50;99.90
10662;DHT22;5379;51.034;7.006;2023-04-21T09:41:16;18.80;99.90
10662;DHT22;5379;51.034;7.006;2023-04-21T09:43:44;19.20;99.90
10662;DHT22;5379;51.034;7.006;2023-04-21T09:46:11;19.60;99.90
10662;DHT22;5379;51.034;7.006;2023-04-21T09:48:42;19.80;99.90
10662;DHT22;5379;51.034;7.006;2023-04-21T09:51:10;19.70;99.90
10662;DHT22;5379;51.034;7.006;2023-04-21T09:53:39;19.90;99.10
10662;DHT22;5379;51.034;7.006;2023-04-21T09:56:10;20.00;99.30
10662;DHT22;5379;51.034;7.006;2023-04-21T09:58:41;19.70;99.90
10662;DHT22;5379;51.034;7.006;2023-04-21T10:01:11;19.30;99.90
10662;DHT22;5379;51.034;7.006;2023-04-21T10:03:40;19.10;99.90
10662;DHT22;5379;51.034;7.006;2023-04-21T10:06:08;19.30;99.90
10662;DHT22;5379;51.034;7.006;2023-04-21T10:08:35;19.50;99.90
10662;DHT22;5379;51.034;7.006;2023-04-21T10:11:03;19.90;99.90
10662;DHT22;5379;51.034;7.006;2023-04-21T10:13:33;19.90;99.90
10662;DHT22;5379;51.034;7.006;2023-04-21T10:16:00;20.20;99.80
10662;DHT22;5379;51.034;7.006;2023-04-21T10:18:28;20.50;98.90
10662;DHT22;5379;51.034;7.006;2023-04-21T10:20:56;20.40;99.60
10662;DHT22;5379;51.034;7.006;2023-04-21T10:23:32;20.40;99.30
10662;DHT22;5379;51.034;7.006;2023-04-21T10:26:03;20.40;97.70
10662;DHT22;5379;51.034;7.006;2023-04-21T10:28:44;19.50;99.90
10662;DHT22;5379;51.034;7.006;2023-04-21T10:31:23;19.80;99.50
10662;DHT22;5379;51.034;7.006;2023-04-21T10:34:15;20.20;99.50
10662;DHT22;5379;51.034;7.006;2023-04-21T10:39:34;20.90;99.20
10662;DHT22;5379;51.034;7.006;2023-04-21T10:42:24;21.10;98.90
10662;DHT22;5379;51.034;7.006;2023-04-21T10:45:08;21.20;98.40
10662;DHT22;5379;51.034;7.006;2023-04-21T10:47:41;21.10;98.70
10662;DHT22;5379;51.034;7.006;2023-04-21T10:50:20;21.30;97.80
10662;DHT22;5379;51.034;7.006;2023-04-21T10:52:59;21.30;98.30
10662;DHT22;5379;51.034;7.006;2023-04-21T10:55:32;21.30;98.20
10662;DHT22;5379;51.034;7.006;2023-04-21T10:58:01;21.20;98.30
10662;DHT22;5379;51.034;7.006;2023-04-21T11:00:30;21.10;98.20
10662;DHT22;5379;51.034;7.006;2023-04-21T11:02:59;20.90;98.20
10662;DHT22;5379;51.034;7.006;2023-04-21T11:05:32;20.40;98.60
10662;DHT22;5379;51.034;7.006;2023-04-21T11:08:09;20.40;98.60
10662;DHT22;5379;51.034;7.006;2023-04-21T11:10:45;20.80;98.40
10662;DHT22;5379;51.034;7.006;2023-04-21T11:13:12;20.70;98.10
10662;DHT22;5379;51.034;7.006;2023-04-21T11:15:41;20.40;97.20
10662;DHT22;5379;51.034;7.006;2023-04-21T11:18:21;20.50;98.30
10662;DHT22;5379;51.034;7.006;2023-04-21T11:21:08;20.20;99.30
10662;DHT22;5379;51.034;7.006;2023-04-21T11:23:38;19.20;99.30
10662;DHT22;5379;51.034;7.006;2023-04-21T11:26:06;18.60;98.60
10662;DHT22;5379;51.034;7.006;2023-04-21T11:28:33;18.40;99.90
10662;DHT22;5379;51.034;7.006;2023-04-21T11:31:01;18.20;99.90
10662;DHT22;5379;51.034;7.006;2023-04-21T11:33:30;18.60;99.90
10662;DHT22;5379;51.034;7.006;2023-04-21T11:36:03;18.70;98.50
10662;DHT22;5379;51.034;7.006;2023-04-21T11:38:36;19.30;99.30
10662;DHT22;5379;51.034;7.006;2023-04-21T11:41:04;19.80;98.70
10662;DHT22;5379;51.034;7.006;2023-04-21T11:43:31;19.50;99.10
10662;DHT22;5379;51.034;7.006;2023-04-21T11:46:12;18.50;99.60
10662;DHT22;5379;51.034;7.006;2023-04-21T11:48:39;19.00;99.80
10662;DHT22;5379;51.034;7.006;2023-04-21T11:51:14;18.80;99.90
10662;DHT22;5379;51.034;7.006;2023-04-21T11:53:41;18.90;99.90
10662;DHT22;5379;51.034;7.006;2023-04-21T11:56:08;18.70;99.90
10662;DHT22;5379;51.034;7.006;2023-04-21T11:58:37;19.40;99.70
10662;DHT22;5379;51.034;7.006;2023-04-21T12:01:07;19.80;99.30
10662;DHT22;5379;51.034;7.006;2023-04-21T12:03:36;19.50;97.60
10662;DHT22;5379;51.034;7.006;2023-04-21T12:06:03;19.00;99.80
10662;DHT22;5379;51.034;7.006;2023-04-21T12:08:31;19.30;98.90
10662;DHT22;5379;51.034;7.006;2023-04-21T12:10:58;19.40;98.90
10662;DHT22;5379;51.034;7.006;2023-04-21T12:13:27;19.80;98.90
10662;DHT22;5379;51.034;7.006;2023-04-21T12:15:54;20.10;98.90
10662;DHT22;5379;51.034;7.006;2023-04-21T12:18:26;20.30;98.20
10662;DHT22;5379;51.034;7.006;2023-04-21T12:20:54;20.60;98.00
10662;DHT22;5379;51.034;7.006;2023-04-21T12:23:21;20.00;97.80
10662;DHT22;5379;51.034;7.006;2023-04-21T12:25:48;19.80;99.00
10662;DHT22;5379;51.034;7.006;2023-04-21T12:28:15;20.20;98.70
10662;DHT22;5379;51.034;7.006;2023-04-21T12:30:43;20.20;98.70
10662;DHT22;5379;51.034;7.006;2023-04-21T12:33:10;20.20;98.30
10662;DHT22;5379;51.034;7.006;2023-04-21T12:35:37;20.00;98.70
10662;DHT22;5379;51.034;7.006;2023-04-21T12:38:06;20.10;98.70
10662;DHT22;5379;51.034;7.006;2023-04-21T12:40:33;20.30;98.60
10662;DHT22;5379;51.034;7.006;2023-04-21T12:43:00;20.40;97.50
10662;DHT22;5379;51.034;7.006;2023-04-21T12:45:27;20.00;98.40
10662;DHT22;5379;51.034;7.006;2023-04-21T12:47:54;19.90;98.50
10662;DHT22;5379;51.034;7.006;2023-04-21T12:50:22;19.80;98.50
10662;DHT22;5379;51.034;7.006;2023-04-21T12:52:49;20.20;98.10
10662;DHT22;5379;51.034;7.006;2023-04-21T12:55:21;20.10;98.70
10662;DHT22;5379;51.034;7.006;2023-04-21T12:57:48;20.30;97.90
10662;DHT22;5379;51.034;7.006;2023-04-21T13:00:17;20.30;97.40
10662;DHT22;5379;51.034;7.006;2023-04-21T13:02:44;20.20;98.10
10662;DHT22;5379;51.034;7.006;2023-04-21T13:05:11;19.70;98.30
10662;DHT22;5379;51.034;7.006;2023-04-21T13:07:39;20.00;97.80
10662;DHT22;5379;51.034;7.006;2023-04-21T13:10:07;19.70;98.30
10662;DHT22;5379;51.034;7.006;2023-04-21T13:12:35;19.90;98.80
10662;DHT22;5379;51.034;7.006;2023-04-21T13:15:02;19.80;98.80
10662;DHT22;5379;51.034;7.006;2023-04-21T13:17:29;20.20;98.10
10662;DHT22;5379;51.034;7.006;2023-04-21T13:19:57;20.20;98.40
10662;DHT22;5379;51.034;7.006;2023-04-21T13:22:24;20.20;98.90
10662;DHT22;5379;51.034;7.006;2023-04-21T13:24:51;20.00;98.40
10662;DHT22;5379;51.034;7.006;2023-04-21T13:27:18;20.10;98.60
10662;DHT22;5379;51.034;7.006;2023-04-21T13:29:46;20.30;97.90
10662;DHT22;5379;51.034;7.006;2023-04-21T13:32:13;20.40;97.80
10662;DHT22;5379;51.034;7.006;2023-04-21T13:34:41;20.60;97.80
10662;DHT22;5379;51.034;7.006;2023-04-21T13:37:07;20.40;97.30
10662;DHT22;5379;51.034;7.006;2023-04-21T13:39:37;20.60;98.10
10662;DHT22;5379;51.034;7.006;2023-04-21T13:42:04;20.50;98.50
10662;DHT22;5379;51.034;7.006;2023-04-21T13:44:32;20.40;97.00
10662;DHT22;5379;51.034;7.006;2023-04-21T13:47:00;20.60;97.60
10662;DHT22;5379;51.034;7.006;2023-04-21T13:49:27;20.70;97.60
10662;DHT22;5379;51.034;7.006;2023-04-21T13:51:54;20.50;96.60
10662;DHT22;5379;51.034;7.006;2023-04-21T13:54:21;20.30;98.00
10662;DHT22;5379;51.034;7.006;2023-04-21T13:56:48;20.30;97.50
10662;DHT22;5379;51.034;7.006;2023-04-21T13:59:15;20.20;98.40
10662;DHT22;5379;51.034;7.006;2023-04-21T14:01:42;20.40;98.10
10662;DHT22;5379;51.034;7.006;2023-04-21T14:04:10;20.50;97.90
10662;DHT22;5379;51.034;7.006;2023-04-21T14:06:37;20.60;97.80
10662;DHT22;5379;51.034;7.006;2023-04-21T14:09:04;20.80;97.50
10662;DHT22;5379;51.034;7.006;2023-04-21T14:11:31;20.90;96.10
10662;DHT22;5379;51.034;7.006;2023-04-21T14:13:58;21.00;96.30
10662;DHT22;5379;51.034;7.006;2023-04-21T14:16:25;20.70;96.70
10662;DHT22;5379;51.034;7.006;2023-04-21T14:18:52;20.70;97.30
10662;DHT22;5379;51.034;7.006;2023-04-21T14:21:21;20.80;97.40
10662;DHT22;5379;51.034;7.006;2023-04-21T14:23:47;20.30;98.00
10662;DHT22;5379;51.034;7.006;2023-04-21T14:26:14;20.60;97.70
10662;DHT22;5379;51.034;7.006;2023-04-21T14:28:41;20.50;97.60
10662;DHT22;5379;51.034;7.006;2023-04-21T14:31:09;20.70;97.30
10662;DHT22;5379;51.034;7.006;2023-04-21T14:33:36;20.50;97.40
10662;DHT22;5379;51.034;7.006;2023-04-21T14:36:03;20.40;96.60
10662;DHT22;5379;51.034;7.006;2023-04-21T14:38:32;20.30;97.40
10662;DHT22;5379;51.034;7.006;2023-04-21T14:40:59;20.40;97.80
10662;DHT22;5379;51.034;7.006;2023-04-21T14:43:26;20.60;97.30
10662;DHT22;5379;51.034;7.006;2023-04-21T14:45:53;20.90;97.10
10662;DHT22;5379;51.034;7.006;2023-04-21T14:48:20;21.30;96.80
10662;DHT22;5379;51.034;7.006;2023-04-21T14:50:47;21.30;96.30
10662;DHT22;5379;51.034;7.006;2023-04-21T14:53:14;21.50;96.30
10662;DHT22;5379;51.034;7.006;2023-04-21T14:55:42;21.50;96.80
10662;DHT22;5379;51.034;7.006;2023-04-21T14:58:09;21.50;96.30
10662;DHT22;5379;51.034;7.006;2023-04-21T15:00:37;21.50;96.30
10662;DHT22;5379;51.034;7.006;2023-04-21T15:03:04;21.60;96.70
10662;DHT22;5379;51.034;7.006;2023-04-21T15:05:31;21.50;95.40
10662;DHT22;5379;51.034;7.006;2023-04-21T15:07:59;21.50;95.30
10662;DHT22;5379;51.034;7.006;2023-04-21T15:10:26;21.60;96.10
10662;DHT22;5379;51.034;7.006;2023-04-21T15:12:55;21.60;96.50
10662;DHT22;5379;51.034;7.006;2023-04-21T15:15:22;21.60;96.20
10662;DHT22;5379;51.034;7.006;2023-04-21T15:17:49;21.40;96.50
10662;DHT22;5379;51.034;7.006;2023-04-21T15:20:16;21.50;96.40
10662;DHT22;5379;51.034;7.006;2023-04-21T15:22:43;21.60;95.70
10662;DHT22;5379;51.034;7.006;2023-04-21T15:25:10;21.60;96.40
10662;DHT22;5379;51.034;7.006;2023-04-21T15:27:37;21.50;96.40
10662;DHT22;5379;51.034;7.006;2023-04-21T15:30:07;21.60;96.00
10662;DHT22;5379;51.034;7.006;2023-04-21T15:32:34;21.70;95.90
10662;DHT22;5379;51.034;7.006;2023-04-21T15:35:01;21.90;95.80
10662;DHT22;5379;51.034;7.006;2023-04-21T15:37:28;22.00;95.90
10662;DHT22;5379;51.034;7.006;2023-04-21T15:39:54;21.70;95.50
10662;DHT22;5379;51.034;7.006;2023-04-21T15:42:21;21.80;96.10
10662;DHT22;5379;51.034;7.006;2023-04-21T15:44:48;22.00;95.90
10662;DHT22;5379;51.034;7.006;2023-04-21T15:47:17;22.00;96.10
10662;DHT22;5379;51.034;7.006;2023-04-21T15:49:44;21.90;95.80
10662;DHT22;5379;51.034;7.006;2023-04-21T15:52:11;21.70;95.20
10662;DHT22;5379;51.034;7.006;2023-04-21T15:54:38;21.70;94.90
10662;DHT22;5379;51.034;7.006;2023-04-21T15:57:05;21.80;95.70
10662;DHT22;5379;51.034;7.006;2023-04-21T15:59:32;21.70;95.90
10662;DHT22;5379;51.034;7.006;2023-04-21T16:01:59;21.80;96.10
10662;DHT22;5379;51.034;7.006;2023-04-21T16:04:27;21.90;95.90
10662;DHT22;5379;51.034;7.006;2023-04-21T16:06:54;21.70;95.90
10662;DHT22;5379;51.034;7.006;2023-04-21T16:09:21;21.40;96.10
10662;DHT22;5379;51.034;7.006;2023-04-21T16:11:48;21.50;96.10
10662;DHT22;5379;51.034;7.006;2023-04-21T16:14:16;21.70;96.00
10662;DHT22;5379;51.034;7.006;2023-04-21T16:16:43;21.70;95.90
10662;DHT22;5379;51.034;7.006;2023-04-21T16:19:09;21.60;96.20
10662;DHT22;5379;51.034;7.006;2023-04-21T16:21:38;21.40;95.20
10662;DHT22;5379;51.034;7.006;2023-04-21T16:24:05;21.40;96.50
10662;DHT22;5379;51.034;7.006;2023-04-21T16:26:32;21.60;96.70
10662;DHT22;5379;51.034;7.006;2023-04-21T16:29:00;21.50;95.80
10662;DHT22;5379;51.034;7.006;2023-04-21T16:31:27;21.60;96.20
10662;DHT22;5379;51.034;7.006;2023-04-21T16:33:54;21.80;95.90
10662;DHT22;5379;51.034;7.006;2023-04-21T16:36:24;21.90;95.70
10662;DHT22;5379;51.034;7.006;2023-04-21T16:38:54;22.00;95.50
10662;DHT22;5379;51.034;7.006;2023-04-21T16:41:21;22.00;95.60
10662;DHT22;5379;51.034;7.006;2023-04-21T16:43:48;22.10;95.80
10662;DHT22;5379;51.034;7.006;2023-04-21T16:46:15;22.20;95.50
10662;DHT22;5379;51.034;7.006;2023-04-21T16:48:42;22.10;94.90
10662;DHT22;5379;51.034;7.006;2023-04-21T16:51:09;22.20;94.50
10662;DHT22;5379;51.034;7.006;2023-04-21T16:53:36;22.20;94.90
10662;DHT22;5379;51.034;7.006;2023-04-21T16:56:05;22.20;95.20
10662;DHT22;5379;51.034;7.006;2023-04-21T16:58:32;22.30;95.20
10662;DHT22;5379;51.034;7.006;2023-04-21T17:00:59;22.40;95.30
10662;DHT22;5379;51.034;7.006;2023-04-21T17:03:25;22.50;95.30
10662;DHT22;5379;51.034;7.006;2023-04-21T17:05:53;22.50;95.30
10662;DHT22;5379;51.034;7.006;2023-04-21T17:08:20;22.40;95.30
10662;DHT22;5379;51.034;7.006;2023-04-21T17:10:47;22.50;95.40
10662;DHT22;5379;51.034;7.006;2023-04-21T17:13:16;22.50;95.40
10662;DHT22;5379;51.034;7.006;2023-04-21T17:15:42;22.50;95.20
10662;DHT22;5379;51.034;7.006;2023-04-21T17:18:09;22.50;95.50
10662;DHT22;5379;51.034;7.006;2023-04-21T17:20:36;22.50;95.20
10662;DHT22;5379;51.034;7.006;2023-04-21T17:23:03;22.40;95.40
10662;DHT22;5379;51.034;7.006;2023-04-21T17:25:30;22.40;95.30
10662;DHT22;5379;51.034;7.006;2023-04-21T17:27:57;22.40;94.30
10662;DHT22;5379;51.034;7.006;2023-04-21T17:30:26;22.50;95.70
10662;DHT22;5379;51.034;7.006;2023-04-21T17:32:53;22.40;95.30
10662;DHT22;5379;51.034;7.006;2023-04-21T17:35:20;22.20;94.30
10662;DHT22;5379;51.034;7.006;2023-04-21T17:37:46;22.40;95.60
10662;DHT22;5379;51.034;7.006;2023-04-21T17:40:14;22.40;95.40
10662;DHT22;5379;51.034;7.006;2023-04-21T17:42:41;22.40;95.30
10662;DHT22;5379;51.034;7.006;2023-04-21T17:45:08;22.10;95.20
10662;DHT22;5379;51.034;7.006;2023-04-21T17:47:37;22.10;95.60
10662;DHT22;5379;51.034;7.006;2023-04-21T17:50:04;22.20;94.90
10662;DHT22;5379;51.034;7.006;2023-04-21T17:52:33;22.10;95.10
10662;DHT22;5379;51.034;7.006;2023-04-21T17:55:00;22.10;94.70
10662;DHT22;5379;51.034;7.006;2023-04-21T17:57:27;22.30;95.50
10662;DHT22;5379;51.034;7.006;2023-04-21T17:59:54;22.40;95.40
10662;DHT22;5379;51.034;7.006;2023-04-21T18:02:21;22.50;95.30
10662;DHT22;5379;51.034;7.006;2023-04-21T18:04:49;22.40;95.20
10662;DHT22;5379;51.034;7.006;2023-04-21T18:07:16;22.20;95.40
10662;DHT22;5379;51.034;7.006;2023-04-21T18:09:43;22.10;94.30
10662;DHT22;5379;51.034;7.006;2023-04-21T18:12:13;22.20;94.20
10662;DHT22;5379;51.034;7.006;2023-04-21T18:14:40;22.20;93.90
10662;DHT22;5379;51.034;7.006;2023-04-21T18:17:07;22.20;94.70
10662;DHT22;5379;51.034;7.006;2023-04-21T18:19:34;22.20;95.20
10662;DHT22;5379;51.034;7.006;2023-04-21T18:22:02;22.10;94.60
10662;DHT22;5379;51.034;7.006;2023-04-21T18:24:29;22.10;95.00
10662;DHT22;5379;51.034;7.006;2023-04-21T18:26:56;22.30;95.30
10662;DHT22;5379;51.034;7.006;2023-04-21T18:29:23;22.20;94.60
10662;DHT22;5379;51.034;7.006;2023-04-21T18:31:50;22.30;95.20
10662;DHT22;5379;51.034;7.006;2023-04-21T18:34:17;22.30;95.20
10662;DHT22;5379;51.034;7.006;2023-04-21T18:36:45;22.40;95.30
10662;DHT22;5379;51.034;7.006;2023-04-21T18:39:14;22.40;95.00
10662;DHT22;5379;51.034;7.006;2023-04-21T18:41:41;22.50;95.40
10662;DHT22;5379;51.034;7.006;2023-04-21T18:44:12;22.50;95.30
10662;DHT22;5379;51.034;7.006;2023-04-21T18:46:40;22.40;95.10
10662;DHT22;5379;51.034;7.006;2023-04-21T18:49:07;22.30;95.20
10662;DHT22;5379;51.034;7.006;2023-04-21T18:51:34;22.30;94.70
10662;DHT22;5379;51.034;7.006;2023-04-21T18:54:01;22.10;94.60
10662;DHT22;5379;51.034;7.006;2023-04-21T18:56:30;22.00;94.80
10662;DHT22;5379;51.034;7.006;2023-04-21T18:58:58;22.10;94.90
10662;DHT22;5379;51.034;7.006;2023-04-21T19:01:25;22.00;95.00
10662;DHT22;5379;51.034;7.006;2023-04-21T19:03:52;22.00;95.00
10662;DHT22;5379;51.034;7.006;2023-04-21T19:06:19;21.80;95.70
10662;DHT22;5379;51.034;7.006;2023-04-21T19:08:46;20.80;96.50
10662;DHT22;5379;51.034;7.006;2023-04-21T19:11:15;20.20;97.20
10662;DHT22;5379;51.034;7.006;2023-04-21T19:13:44;19.90;96.70
10662;DHT22;5379;51.034;7.006;2023-04-21T19:16:12;20.10;97.00
10662;DHT22;5379;51.034;7.006;2023-04-21T19:18:41;20.50;96.60
10662;DHT22;5379;51.034;7.006;2023-04-21T19:21:08;20.80;96.50
10662;DHT22;5379;51.034;7.006;2023-04-21T19:23:38;20.80;96.10
10662;DHT22;5379;51.034;7.006;2023-04-21T19:26:05;21.00;96.40
10662;DHT22;5379;51.034;7.006;2023-04-21T19:28:33;20.90;96.50
10662;DHT22;5379;51.034;7.006;2023-04-21T19:31:01;20.70;97.00
10662;DHT22;5379;51.034;7.006;2023-04-21T19:33:28;20.30;98.20
10662;DHT22;5379;51.034;7.006;2023-04-21T19:35:56;19.80;98.80
10662;DHT22;5379;51.034;7.006;2023-04-21T19:38:23;19.80;99.10
10662;DHT22;5379;51.034;7.006;2023-04-21T19:40:50;19.50;99.90
10662;DHT22;5379;51.034;7.006;2023-04-21T19:43:17;19.50;99.90
10662;DHT22;5379;51.034;7.006;2023-04-21T19:45:46;18.90;99.90
10662;DHT22;5379;51.034;7.006;2023-04-21T19:48:14;18.70;99.90
10662;DHT22;5379;51.034;7.006;2023-04-21T19:50:41;18.80;99.90
10662;DHT22;5379;51.034;7.006;2023-04-21T19:53:09;18.90;99.90
10662;DHT22;5379;51.034;7.006;2023-04-21T19:55:39;18.90;99.90
10662;DHT22;5379;51.034;7.006;2023-04-21T19:58:06;18.70;99.90
10662;DHT22;5379;51.034;7.006;2023-04-21T20:00:33;18.80;99.90
10662;DHT22;5379;51.034;7.006;2023-04-21T20:03:01;18.80;99.90
10662;DHT22;5379;51.034;7.006;2023-04-21T20:05:30;19.20;99.90
10662;DHT22;5379;51.034;7.006;2023-04-21T20:07:56;19.10;99.90
10662;DHT22;5379;51.034;7.006;2023-04-21T20:10:24;18.70;99.90
10662;DHT22;5379;51.034;7.006;2023-04-21T20:12:51;19.00;99.90
10662;DHT22;5379;51.034;7.006;2023-04-21T20:15:18;19.00;99.90
10662;DHT22;5379;51.034;7.006;2023-04-21T20:17:45;19.30;99.90
10662;DHT22;5379;51.034;7.006;2023-04-21T20:20:14;18.80;99.90
10662;DHT22;5379;51.034;7.006;2023-04-21T20:22:42;17.90;99.90
10662;DHT22;5379;51.034;7.006;2023-04-21T20:25:09;17.80;99.90